THY2015 LTAU-LTAI
Flight info
| Callsign | THY2015 |
|---|---|
| Flight time | 0h 37m |
| Altitude | 37000 |
| Route | ERCIS UA285 MUT/N0485F380 UR55 KONAK |
| Aircraft | B77W/H-SDE1E2E3FGHIJ2J3J4J5M1RWXY/LB1D1 |
Departure
| Time | 2026-05-04 16:14 |
|---|---|
| Airport | Kayseri Erkilet International Airport (LTAU) |
Arrival
| Time | 2026-05-04 16:51 |
|---|---|
| Airport | Antalya International Airport (LTAI) |
| Time | Latitude | Longitude | Altitude | Speed | Heading |
|---|---|---|---|---|---|
| 2026-05-04 16:13 | 38.61290 | 35.69211 | 14073 ft | 322 kts | 166° |
| 2026-05-04 16:14 | 38.58335 | 35.70191 | 14379 ft | 359 kts | 167° |
| 2026-05-04 16:14 | 38.53321 | 35.71758 | 15928 ft | 379 kts | 167° |
| 2026-05-04 16:15 | 38.45460 | 35.72110 | 18428 ft | 397 kts | 203° |
| 2026-05-04 16:16 | 38.41299 | 35.67492 | 20275 ft | 408 kts | 236° |
| 2026-05-04 16:16 | 38.38864 | 35.56864 | 22433 ft | 430 kts | 255° |
| 2026-05-04 16:17 | 38.37531 | 35.49365 | 23954 ft | 438 kts | 254° |
| 2026-05-04 16:18 | 38.35387 | 35.37900 | 25918 ft | 449 kts | 253° |
| 2026-05-04 16:18 | 38.34644 | 35.34012 | 26521 ft | 453 kts | 253° |
| 2026-05-04 16:19 | 38.32626 | 35.23493 | 28086 ft | 464 kts | 253° |
| 2026-05-04 16:19 | 38.31326 | 35.16739 | 28985 ft | 471 kts | 254° |
| 2026-05-04 16:20 | 38.28962 | 35.04499 | 30311 ft | 481 kts | 254° |
| 2026-05-04 16:20 | 38.27243 | 34.96323 | 31346 ft | 473 kts | 245° |
| 2026-05-04 16:21 | 38.20974 | 34.87000 | 32645 ft | 465 kts | 221° |
| 2026-05-04 16:22 | 38.16237 | 34.81432 | 33720 ft | 461 kts | 223° |
| 2026-05-04 16:22 | 38.09287 | 34.73093 | 34852 ft | 461 kts | 223° |
| 2026-05-04 16:23 | 38.02304 | 34.64715 | 35884 ft | 460 kts | 223° |
| 2026-05-04 16:24 | 37.94427 | 34.55300 | 36899 ft | 462 kts | 224° |
| 2026-05-04 16:25 | 37.89728 | 34.49698 | 36850 ft | 463 kts | 223° |
| 2026-05-04 16:26 | 37.73492 | 34.30471 | 36873 ft | 456 kts | 224° |
| 2026-05-04 16:28 | 37.61862 | 34.16767 | 36898 ft | 457 kts | 224° |
| 2026-05-04 16:29 | 37.47214 | 33.99590 | 36905 ft | 458 kts | 224° |
| 2026-05-04 16:31 | 37.35550 | 33.85993 | 36903 ft | 457 kts | 224° |
| 2026-05-04 16:32 | 37.31726 | 33.81548 | 36907 ft | 456 kts | 224° |
| 2026-05-04 16:33 | 37.25460 | 33.74274 | 36904 ft | 455 kts | 223° |
| 2026-05-04 16:34 | 37.19978 | 33.67924 | 36903 ft | 453 kts | 223° |
| 2026-05-04 16:35 | 37.05512 | 33.51234 | 36887 ft | 450 kts | 223° |
| 2026-05-04 16:36 | 36.87390 | 33.29813 | 36692 ft | 443 kts | 236° |
| 2026-05-04 16:36 | 36.88140 | 32.69801 | 31708 ft | 426 kts | 269° |
| 2026-05-04 16:37 | 36.89709 | 32.11137 | 22334 ft | 401 kts | 270° |
| 2026-05-04 16:37 | 36.89897 | 32.02941 | 21078 ft | 389 kts | 270° |
| 2026-05-04 16:37 | 36.90284 | 31.85075 | 18477 ft | 370 kts | 270° |
| 2026-05-04 16:38 | 36.90398 | 31.68374 | 15876 ft | 355 kts | 266° |
| 2026-05-04 16:39 | 36.90123 | 31.61219 | 14803 ft | 349 kts | 266° |
| 2026-05-04 16:39 | 36.89933 | 31.55473 | 13955 ft | 347 kts | 266° |
| 2026-05-04 16:40 | 36.89618 | 31.45359 | 12395 ft | 340 kts | 266° |
| 2026-05-04 16:40 | 36.90086 | 31.27880 | 10259 ft | 314 kts | 271° |
| 2026-05-04 16:41 | 36.90314 | 31.22647 | 10085 ft | 293 kts | 271° |
| 2026-05-04 16:41 | 36.90624 | 31.15224 | 9304 ft | 281 kts | 271° |
| 2026-05-04 16:42 | 36.90827 | 31.08045 | 8297 ft | 264 kts | 261° |
| 2026-05-04 16:43 | 36.88926 | 31.04443 | 7743 ft | 257 kts | 211° |
| 2026-05-04 16:43 | 36.85518 | 31.03057 | 7131 ft | 259 kts | 198° |
| 2026-05-04 16:43 | 36.83833 | 31.02278 | 6821 ft | 262 kts | 204° |
| 2026-05-04 16:44 | 36.77858 | 30.97094 | 5537 ft | 260 kts | 226° |
| 2026-05-04 16:45 | 36.75581 | 30.93655 | 4925 ft | 257 kts | 237° |
| 2026-05-04 16:46 | 36.73182 | 30.87755 | 4024 ft | 252 kts | 252° |
| 2026-05-04 16:46 | 36.72332 | 30.83592 | 3453 ft | 247 kts | 263° |
| 2026-05-04 16:47 | 36.72085 | 30.79628 | 3196 ft | 203 kts | 284° |
| 2026-05-04 16:47 | 36.73566 | 30.77207 | 3032 ft | 179 kts | 329° |
| 2026-05-04 16:48 | 36.77204 | 30.77252 | 2470 ft | 189 kts | 24° |
| 2026-05-04 16:48 | 36.78396 | 30.77984 | 2096 ft | 192 kts | 24° |
| 2026-05-04 16:49 | 36.80694 | 30.79362 | 1618 ft | 170 kts | 16° |
| 2026-05-04 16:49 | 36.83005 | 30.79953 | 1316 ft | 172 kts | 5° |
| 2026-05-04 16:50 | 36.85077 | 30.80261 | 744 ft | 134 kts | 1° |
| 2026-05-04 16:50 | 36.86812 | 30.80592 | 448 ft | 135 kts | 356° |
| 2026-05-04 16:51 | 36.88654 | 30.80811 | 183 ft | 116 kts | 357° |
| 2026-05-04 16:51 | 36.89288 | 30.80867 | 180 ft | 79 kts | 7° |
| 2026-05-04 16:51 | 36.90018 | 30.80879 | 182 ft | 0 kts | 335° |
| 2026-05-04 16:52 | 36.90027 | 30.80873 | 173 ft | 0 kts | 335° |
| 2026-05-04 16:53 | 36.90143 | 30.80810 | 181 ft | 15 kts | 336° |
| 2026-05-04 16:53 | 36.90324 | 30.80623 | 181 ft | 13 kts | 277° |
| 2026-05-04 16:54 | 36.90334 | 30.80514 | 181 ft | 13 kts | 277° |
| 2026-05-04 16:55 | 36.90373 | 30.80077 | 180 ft | 13 kts | 276° |
| 2026-05-04 16:55 | 36.90393 | 30.79859 | 180 ft | 13 kts | 276° |
| 2026-05-04 16:56 | 36.90471 | 30.79690 | 180 ft | 13 kts | 4° |
| 2026-05-04 16:56 | 36.90739 | 30.79726 | 180 ft | 13 kts | 5° |
| 2026-05-04 16:57 | 36.90800 | 30.79733 | 180 ft | 13 kts | 6° |
| 2026-05-04 16:57 | 36.90905 | 30.79805 | 180 ft | 8 kts | 87° |
| 2026-05-04 16:58 | 36.90979 | 30.79905 | 180 ft | 6 kts | 36° |
| 2026-05-04 16:58 | 36.90987 | 30.79958 | 180 ft | 7 kts | 93° |
| 2026-05-04 16:59 | 36.90983 | 30.80014 | 180 ft | 0 kts | 96° |